Regen radar Meer informatie rain snow radar


Bezoek ook deze websites:

Template documentation
and downloads

And another site



METAR rapporten vliegvelden

   
EBBR - Brussels International Airport, Belgium
Afstand tot: W 14 km
Gewijzigd: 29-05-2022 13:20
Licht bewolkt  
Licht bewolkt  
   Wind: NW 11 km/h
Wind: NW 11 km/h
Temperatuur: 12°C
Dauwpunt: 7°C
Vochtigheid: 72%
Barometer: 1016 hPa
Bewolking: Licht bewolkt
Zicht: meer dan 10 km
Bewolking: Licht bewolkt 2400 ft
EBBR 291120Z 32006KT 280V340 9999 FEW024TCU 12/07 Q1016 TEMPO 4000 SHRA
EBBE - Beauvechain (Bevekom), Belgium
Afstand tot: ZZO 17 km
Gewijzigd: 29-05-2022 13:25
Grotendeels bewolkt  
Grotendeels bewolkt  
   Wind: Westen 17 km/h
Wind: Westen 17 km/h
Temperatuur: 13°C
Dauwpunt: 5°C
Vochtigheid: 59%
Barometer: 1016 hPa
Bewolking: Grotendeels bewolkt
Zicht: meer dan 10 km
Bewolking: Grotendeels bewolkt 5000 ft
EBBE 291125Z AUTO 27009KT 9999 BKN050/// 13/05 Q1016 BLU
EBDT - Schaffen, Belgium
Afstand tot: ONO 29 km
Gewijzigd: 29-05-2022 13:25
Grotendeels bewolkt  
Grotendeels bewolkt  
   Wind: NW 6 km/h
Wind: NW 6 km/h
Temperatuur: 14°C
Dauwpunt: 5°C
Vochtigheid: 55%
Barometer: 1015 hPa
Bewolking: Grotendeels bewolkt
Zicht: meer dan 10 km
Bewolking: Gedeeltelijk bewolkt 4200 ft,
Gedeeltelijk bewolkt 6100 ft,
Grotendeels bewolkt 7600 ft
EBDT 291125Z AUTO 32003KT 9999 SCT042/// SCT061/// BKN076/// 14/05 Q1015 BLU
EBAW - Antwerp/Deurne, Belgium
Afstand tot: NNW 38 km
Gewijzigd: 29-05-2022 13:20
Light Showers, Regen, Gedeeltelijk bewolkt  
Light Showers, Regen, Gedeeltelijk bewolkt  
   Wind: NW 7 km/h
Wind: NW 7 km/h
Temperatuur: 10°C
Voelt als: 9°C
Dauwpunt: 8°C
Vochtigheid: 88%
Barometer: 1017 hPa
Bewolking: Gedeeltelijk bewolkt
Zicht: meer dan 10 km
Bewolking: Licht bewolkt 2500 ft,
Gedeeltelijk bewolkt 4500 ft
EBAW 291120Z 31004KT 280V350 9999 -SHRA FEW025 SCT045 10/08 Q1017 NOSIG
EBCI - Charleroi/Gosselies, Belgium
Afstand tot: ZZW 51 km
Gewijzigd: 29-05-2022 13:20
Light Showers, Regen, Grotendeels bewolkt  
Light Showers, Regen, Grotendeels bewolkt  
   Wind: NNW 9 km/h
Wind: NNW 9 km/h
Temperatuur: 11°C
Dauwpunt: 4°C
Vochtigheid: 62%
Barometer: 1016 hPa
Bewolking: Grotendeels bewolkt
Zicht: meer dan 10 km
Bewolking: Licht bewolkt 1800 ft,
Grotendeels bewolkt 4500 ft
EBCI 291120Z 33005KT 270V020 9999 -SHRA FEW018 BKN045 11/04 Q1016 TEMPO 35015G25KT 3500 SHRA SCT015TCU
EBLG - Bierset/Liege, Belgium
Afstand tot: OZO 60 km
Gewijzigd: 29-05-2022 13:20
Grotendeels bewolkt  
Grotendeels bewolkt  
   Wind: NNW 11 km/h
Wind: NNW 11 km/h
Temperatuur: 12°C
Dauwpunt: 5°C
Vochtigheid: 63%
Barometer: 1016 hPa
Bewolking: Grotendeels bewolkt
Zicht: meer dan 10 km
Bewolking: Gedeeltelijk bewolkt 2500 ft,
Grotendeels bewolkt 3800 ft
EBLG 291120Z 33006KT 250V010 9999 SCT025 BKN038 12/05 Q1016 NOSIG

Script ontwikkeld door  Saratoga-weather.org Aangepast voor de template door  Weerstation Leuven

U vindt ons ook hier:

Het Weer Aktueel

UK Metoffice

WeatherCloud

Weather Underground

Benelux Weer Netwerk

AWEKAS

Apparatuur in gebruik:

Weerstation
Davis Vantage Pro2

Weerprogramma
Meteobridge

Weercomputer
TP-Link TL-MR3020

Webleverancier
One.com

Davis Vantage Pro2

Meteobridge

TP-Link TL-MR3020

One.com